This is the latest recevied weather packets stored in our database for station/object DG2GGP-11. If no packets are shown the sender has not sent any weather packets the latest 1 day(s).
| Time | Temp. | Humidity | Pressure | Rain* | Wind** | Luminosity | Snow |
|---|---|---|---|---|---|---|---|
| 1836274419 | 12.78° C | 84% | 1023.9 hPa | 0 mm | 1.34 m/s, 280° | 0 W/m² | - |
| 1836274269 | 12.78° C | 84% | 1023.7 hPa | 0 mm | 1.79 m/s, 305° | 0 W/m² | - |
| 1778008157 | 11.67° C | 87% | 1008.9 hPa | 0 mm | 1.79 m/s, 190° | 0 W/m² | - |
| 1778007557 | 11.67° C | 87% | 1009 hPa | 0 mm | 1.79 m/s, 215° | 0 W/m² | - |
| 1778006957 | 11.67° C | 86% | 1009.1 hPa | 0 mm | 2.68 m/s, 215° | 0 W/m² | - |
| 1778006356 | 11.67° C | 86% | 1008.8 hPa | 0 mm | 1.79 m/s, 205° | 0 W/m² | - |
| 1778005757 | 11.67° C | 86% | 1008.7 hPa | 0 mm | 1.79 m/s, 203° | 0 W/m² | - |
| 1778005157 | 12.22° C | 85% | 1008.7 hPa | 0 mm | 1.79 m/s, 210° | 0 W/m² | - |
| 1778004557 | 12.22° C | 84% | 1008.6 hPa | 0 mm | 2.24 m/s, 230° | 2 W/m² | - |
| 1778003957 | 12.22° C | 83% | 1008.5 hPa | 0 mm | 2.24 m/s, 208° | 1 W/m² | - |
| 1778003357 | 12.78° C | 83% | 1008.6 hPa | 0 mm | 2.24 m/s, 210° | 2 W/m² | - |
| 1778002757 | 12.22° C | 83% | 1008.6 hPa | 0 mm | 0 m/s | 4 W/m² | - |
| 1778002157 | 12.22° C | 83% | 1008.6 hPa | 0 mm | 2.68 m/s, 223° | 2 W/m² | - |
| 1778001556 | 12.78° C | 84% | 1008.6 hPa | 0 mm | 1.79 m/s, 210° | 5 W/m² | - |
| 1778000957 | 12.22° C | 84% | 1008.5 hPa | 0 mm | 1.79 m/s, 115° | 8 W/m² | - |
| 1778000357 | 12.22° C | 85% | 1008.6 hPa | 0 mm | 2.68 m/s, 143° | 10 W/m² | - |
| 1777999757 | 12.22° C | 85% | 1008.6 hPa | 0 mm | 0.89 m/s, 175° | 3 W/m² | - |
| 1777999156 | 11.67° C | 85% | 1008.6 hPa | 0 mm | 1.79 m/s, 190° | 2 W/m² | - |
| 1777998557 | 11.67° C | 85% | 1008.5 hPa | 0 mm | 1.34 m/s, 180° | 2 W/m² | - |
| 1777997956 | 11.67° C | 84% | 1008.4 hPa | 0 mm | 1.34 m/s, 180° | 2 W/m² | - |
| 1777997357 | 12.22° C | 83% | 1008.4 hPa | 0 mm | 0 m/s | 1 W/m² | - |
| 1777996757 | 12.22° C | 82% | 1008.5 hPa | 0 mm | 3.13 m/s, 188° | 0 W/m² | - |
| 1777996157 | 12.78° C | 79% | 1008.5 hPa | 0 mm | 2.68 m/s, 140° | 0 W/m² | - |
| 1777995557 | 14.44° C | 75% | 1008.4 hPa | 0 mm | 5.36 m/s, 295° | 0 W/m² | - |
| 1777994956 | 15° C | 76% | 1007.9 hPa | 0 mm | 1.79 m/s, 220° | 6 W/m² | - |
* Rain latest hour (hover to see other rain measurements)
** Current wind speed in m/s (hover to see current wind gust speed)